Time;durP1;ratioP1;P1;durP2;ratioP2;P2;SDS_P1;SDS_P2;PMS_P1;PMS_P2;Temp;Humidity;BMP_temperature;BMP_pressure;BME280_temperature;BME280_humidity;BME280_pressure;Samples;Min_cycle;Max_cycle;Signal;HPM_P1;HPM_P2
2022/08/10 00:59:36;;;;;;;3.33;2.92;;;;;;;20.68;44.23;94048.97;5107535;27;20482;-75
2022/08/10 01:02:01;;;;;;;3.90;3.33;;;;;;;20.66;44.32;94055.91;5088896;28;20564;-74
2022/08/10 01:04:27;;;;;;;4.28;3.20;;;;;;;20.42;44.43;94014.75;5092129;28;20028;-75
2022/08/10 01:07:00;;;;;;;3.63;3.33;;;;;;;20.65;44.56;94048.94;5093148;28;20031;-74
2022/08/10 01:09:44;;;;;;;4.85;3.00;;;;;;;20.60;44.63;94042.72;5088081;28;20165;-74
2022/08/10 01:12:20;;;;;;;3.35;3.05;;;;;;;20.63;44.51;94045.84;5088216;28;20566;-75
2022/08/10 01:15:00;;;;;;;3.83;3.22;;;;;;;20.62;44.02;94038.88;5089139;28;20035;-75
2022/08/10 01:17:44;;;;;;;3.45;3.10;;;;;;;20.50;44.15;94023.69;5087686;28;20098;-75
2022/08/10 01:20:33;;;;;;;5.05;3.50;;;;;;;20.69;44.26;94049.75;5087804;28;20122;-75
2022/08/10 01:23:17;;;;;;;4.78;3.40;;;;;;;20.67;44.09;94046.66;5089746;28;20020;-75
2022/08/10 01:26:01;;;;;;;5.32;3.50;;;;;;;20.72;44.13;94040.91;5089457;28;20088;-74
2022/08/10 01:28:54;;;;;;;4.53;3.83;;;;;;;20.75;44.31;94042.88;5101643;28;20028;-73
2022/08/10 01:31:25;;;;;;;3.90;3.28;;;;;;;20.60;44.25;94015.72;5107235;28;20020;-73
2022/08/10 01:33:57;;;;;;;4.30;3.03;;;;;;;20.86;44.35;94047.25;5103799;28;20532;-74
2022/08/10 01:36:37;;;;;;;6.25;3.33;;;;;;;20.55;44.72;93986.31;5100882;28;20032;-73
2022/08/10 01:39:05;;;;;;;3.35;2.85;;;;;;;20.66;44.09;94009.97;5100275;28;20028;-73
2022/08/10 01:41:39;;;;;;;3.90;2.95;;;;;;;20.71;44.00;94002.31;5101887;28;20433;-75
2022/08/10 01:44:12;;;;;;;4.70;3.50;;;;;;;20.99;43.69;94036.94;5102502;28;20050;-73
2022/08/10 01:46:41;;;;;;;4.78;3.00;;;;;;;20.82;43.27;94016.69;5107664;28;20978;-74
2022/08/10 01:49:10;;;;;;;3.85;3.05;;;;;;;21.08;43.18;94037.41;5100355;28;20028;-74
2022/08/10 01:51:39;;;;;;;3.85;3.40;;;;;;;21.03;42.90;94024.22;5102017;28;20031;-74
2022/08/10 01:54:10;;;;;;;4.85;3.22;;;;;;;21.08;43.65;94034.69;5100146;27;20028;-73
2022/08/10 01:56:39;;;;;;;3.70;2.88;;;;;;;21.10;43.52;94027.00;5105633;27;20027;-73
2022/08/10 01:59:18;;;;;;;5.68;3.05;;;;;;;20.68;43.09;93967.16;5082105;28;20423;-75
2022/08/10 02:01:50;;;;;;;3.22;2.60;;;;;;;21.15;42.81;94023.94;5071360;28;20070;-75
2022/08/10 02:04:18;;;;;;;3.17;2.65;;;;;;;21.20;42.12;94023.59;5075014;28;20027;-75
2022/08/10 02:06:48;;;;;;;2.33;2.13;;;;;;;21.20;41.41;94020.91;5075873;28;20028;-75
2022/08/10 02:09:19;;;;;;;3.30;2.65;;;;;;;21.31;41.43;94024.47;5074792;28;20100;-75
2022/08/10 02:11:45;;;;;;;5.55;3.10;;;;;;;21.29;41.30;94010.53;5071867;28;20709;-75
2022/08/10 02:14:15;;;;;;;2.88;2.45;;;;;;;21.45;41.10;94021.84;5073324;28;20040;-74
2022/08/10 02:16:43;;;;;;;4.50;3.33;;;;;;;21.31;41.07;94002.06;5074481;28;20028;-75
2022/08/10 02:19:14;;;;;;;2.97;2.47;;;;;;;21.48;41.52;94020.31;5073418;28;20029;-75
2022/08/10 02:21:45;;;;;;;4.53;2.60;;;;;;;21.48;41.33;94025.72;5074036;28;20486;-76
2022/08/10 02:24:12;;;;;;;3.88;2.67;;;;;;;21.49;41.35;94021.09;5081757;28;20032;-75
2022/08/10 02:26:42;;;;;;;2.80;2.42;;;;;;;21.46;40.95;94001.75;5073149;28;20070;-75
2022/08/10 02:29:11;;;;;;;2.67;2.30;;;;;;;21.60;41.47;94017.34;5072063;28;20543;-75
2022/08/10 02:31:37;;;;;;;5.10;3.40;;;;;;;21.58;40.96;94014.22;5074872;28;20048;-75
2022/08/10 02:34:05;;;;;;;3.33;2.90;;;;;;;21.55;40.51;94009.56;5070166;28;20032;-75
2022/08/10 02:36:33;;;;;;;4.10;2.88;;;;;;;21.37;40.63;94005.94;5073008;28;20492;-75
2022/08/10 02:39:01;;;;;;;3.88;3.22;;;;;;;21.49;40.82;94015.69;5071649;28;20495;-75
2022/08/10 02:41:51;;;;;;;3.88;2.75;;;;;;;21.57;41.11;94028.13;5073394;28;20024;-76
2022/08/10 02:44:36;;;;;;;5.15;2.83;;;;;;;21.51;40.74;94035.03;5072279;28;20092;-75
2022/08/10 02:47:10;;;;;;;3.55;2.50;;;;;;;21.52;40.99;94031.16;5073949;28;20954;-75
2022/08/10 02:49:42;;;;;;;6.32;3.35;;;;;;;21.46;41.42;94033.47;5071710;28;20051;-74
2022/08/10 02:52:19;;;;;;;3.58;3.05;;;;;;;21.46;41.85;94023.38;5075763;28;20036;-75
2022/08/10 02:54:54;;;;;;;6.07;3.50;;;;;;;21.46;42.05;94028.81;5071721;28;20028;-75
2022/08/10 02:57:26;;;;;;;;;;;;;;;21.48;42.13;94041.19;5074652;28;20030;-75
2022/08/10 02:59:54;;;;;;;3.88;3.03;;;;;;;21.37;42.47;94033.75;5074147;28;19924;-75
2022/08/10 03:02:28;;;;;;;4.93;3.75;;;;;;;21.37;42.73;94038.41;5072417;28;20078;-75
2022/08/10 03:05:12;;;;;;;4.75;3.00;;;;;;;20.98;43.52;93997.53;5072154;28;20107;-74
2022/08/10 03:08:03;;;;;;;3.22;2.92;;;;;;;21.26;43.51;94046.47;5076133;28;20507;-75
2022/08/10 03:10:32;;;;;;;4.43;3.13;;;;;;;21.15;44.14;94028.59;5066378;28;20131;-75
2022/08/10 03:13:04;;;;;;;5.75;3.25;;;;;;;21.23;44.48;94036.38;5073953;28;20111;-74
2022/08/10 03:15:32;;;;;;;5.13;3.67;;;;;;;21.27;44.64;94045.28;5070876;28;20031;-75
2022/08/10 03:17:59;;;;;;;4.13;3.72;;;;;;;21.31;44.83;94038.00;5072053;28;20054;-75
2022/08/10 03:20:32;;;;;;;4.07;3.40;;;;;;;21.37;44.72;94041.09;5073113;28;20029;-75
2022/08/10 03:22:59;;;;;;;4.85;3.78;;;;;;;21.29;44.21;94024.06;5072252;28;20043;-75
2022/08/10 03:25:25;;;;;;;5.13;4.18;;;;;;;21.35;44.18;94032.59;5073671;28;20020;-75
2022/08/10 03:27:52;;;;;;;6.93;3.47;;;;;;;21.38;43.74;94032.63;5074129;28;20450;-75
2022/08/10 03:30:18;;;;;;;4.38;3.40;;;;;;;21.35;43.74;94027.19;5071105;28;20586;-76
2022/08/10 03:32:44;;;;;;;4.60;3.47;;;;;;;21.44;43.91;94050.06;5072911;28;20029;-73
2022/08/10 03:35:11;;;;;;;4.82;3.28;;;;;;;21.48;44.10;94047.38;5073210;28;20035;-74
2022/08/10 03:37:37;;;;;;;4.32;3.47;;;;;;;21.41;43.82;94039.97;5074305;28;20069;-75
2022/08/10 03:40:05;;;;;;;4.05;3.47;;;;;;;21.52;43.97;94047.38;5072972;28;20036;-75
2022/08/10 03:42:32;;;;;;;5.30;3.47;;;;;;;21.52;44.03;94052.81;5072991;28;20122;-75
2022/08/10 03:45:00;;;;;;;5.70;4.07;;;;;;;21.47;44.40;94045.81;5070370;28;20027;-76
2022/08/10 03:47:28;;;;;;;5.05;3.45;;;;;;;21.40;44.41;94033.03;5073439;28;20070;-75
2022/08/10 03:49:55;;;;;;;4.65;3.42;;;;;;;21.02;43.82;93968.63;5071160;28;20024;-74
2022/08/10 03:52:21;;;;;;;4.22;3.63;;;;;;;21.46;43.99;94058.56;5072192;28;20105;-75
2022/08/10 03:54:50;;;;;;;5.43;3.55;;;;;;;21.34;43.90;94041.88;5072552;28;20465;-76
2022/08/10 03:57:15;;;;;;;6.45;4.07;;;;;;;21.38;44.06;94048.84;5072145;28;20478;-75
2022/08/10 03:59:41;;;;;;;4.78;3.55;;;;;;;21.51;44.03;94059.38;5071462;28;20628;-74
2022/08/10 04:02:07;;;;;;;4.97;3.30;;;;;;;21.50;44.55;94065.94;5072337;28;20046;-76
2022/08/10 04:04:33;;;;;;;4.28;3.58;;;;;;;21.46;44.23;94057.81;5077921;28;20103;-74
2022/08/10 04:06:59;;;;;;;4.30;3.55;;;;;;;21.50;44.42;94065.94;5078982;28;20079;-75
2022/08/10 04:09:30;;;;;;;3.83;3.20;;;;;;;21.44;44.75;94063.59;5072193;28;20034;-75
2022/08/10 04:11:55;;;;;;;3.70;3.30;;;;;;;21.39;45.11;94061.22;5071617;28;20030;-76
2022/08/10 04:14:20;;;;;;;4.90;3.65;;;;;;;21.36;45.06;94056.56;5069925;28;20040;-75
2022/08/10 04:16:46;;;;;;;6.18;3.95;;;;;;;21.43;44.88;94062.03;5074403;28;20024;-74
2022/08/10 04:19:15;;;;;;;4.60;3.63;;;;;;;21.53;44.91;94065.97;5070457;28;20031;-75
2022/08/10 04:21:44;;;;;;;4.80;3.60;;;;;;;21.38;44.87;94054.25;5072841;28;20491;-75
2022/08/10 04:24:16;;;;;;;4.25;3.85;;;;;;;21.53;44.79;94051.66;5072348;28;20105;-76
2022/08/10 04:26:42;;;;;;;4.88;3.67;;;;;;;21.72;45.79;94073.06;5073156;28;20020;-74
2022/08/10 04:29:08;;;;;;;5.20;3.75;;;;;;;21.74;44.91;94066.16;5071362;28;20048;-75
2022/08/10 04:31:35;;;;;;;4.05;3.65;;;;;;;21.93;44.57;94070.50;5071076;28;20554;-75
2022/08/10 04:34:02;;;;;;;6.68;4.05;;;;;;;21.93;44.22;94078.63;5069760;28;20023;-75
2022/08/10 04:36:29;;;;;;;4.70;4.18;;;;;;;21.96;44.36;94061.63;5073617;28;20543;-76
2022/08/10 04:38:55;;;;;;;4.15;3.58;;;;;;;22.12;44.52;94072.16;5069608;28;20021;-75
2022/08/10 04:41:21;;;;;;;4.22;3.80;;;;;;;22.04;44.23;94052.38;5072498;28;20433;-76
2022/08/10 04:43:46;;;;;;;4.03;3.47;;;;;;;22.09;44.09;94054.75;5072307;28;20020;-75
2022/08/10 04:46:12;;;;;;;6.55;4.85;;;;;;;22.21;44.47;94064.44;5069784;28;20422;-75
2022/08/10 04:48:37;;;;;;;6.72;4.22;;;;;;;22.10;45.07;94077.94;5069797;28;20044;-75
2022/08/10 04:51:03;;;;;;;5.22;4.47;;;;;;;21.99;45.77;94073.63;5072993;28;20482;-75
2022/08/10 04:53:29;;;;;;;5.60;4.63;;;;;;;22.03;45.95;94077.91;5070791;28;20031;-75
2022/08/10 04:55:54;;;;;;;5.53;4.28;;;;;;;22.09;45.28;94076.41;5069564;28;20028;-75
2022/08/10 04:58:19;;;;;;;4.65;4.25;;;;;;;21.91;45.74;94051.13;5071193;28;20048;-75
2022/08/10 05:00:45;;;;;;;5.35;4.13;;;;;;;21.81;45.66;94043.72;5069683;28;20021;-75
2022/08/10 05:03:10;;;;;;;7.05;4.63;;;;;;;21.73;46.23;94075.41;5073313;28;20024;-76
2022/08/10 05:05:36;;;;;;;7.75;4.85;;;;;;;21.84;46.46;94070.06;5069831;28;20506;-74
2022/08/10 05:08:01;;;;;;;4.63;4.22;;;;;;;22.01;46.09;94071.31;5072063;28;20028;-75
2022/08/10 05:10:26;;;;;;;6.43;4.32;;;;;;;22.12;45.77;94083.75;5070314;28;20281;-74
2022/08/10 05:12:52;;;;;;;4.65;4.10;;;;;;;21.92;45.81;94071.66;5070504;28;20549;-75
2022/08/10 05:15:18;;;;;;;5.20;4.43;;;;;;;22.07;46.31;94076.00;5070275;28;20050;-75
2022/08/10 05:17:44;;;;;;;6.93;6.05;;;;;;;21.84;47.10;94073.56;5070589;28;20518;-75
2022/08/10 05:20:11;;;;;;;5.20;4.15;;;;;;;21.74;47.35;94057.25;5078468;28;20454;-76
2022/08/10 05:22:43;;;;;;;5.85;4.38;;;;;;;21.91;46.82;94053.84;5070282;28;20035;-75
2022/08/10 05:25:14;;;;;;;6.95;4.80;;;;;;;22.01;47.08;94058.53;5071081;28;20040;-75
2022/08/10 05:27:40;;;;;;;6.85;5.05;;;;;;;22.02;47.02;94059.31;5072740;28;20139;-75
2022/08/10 05:30:07;;;;;;;7.07;5.97;;;;;;;21.94;47.45;94079.41;5071011;28;20495;-75
2022/08/10 05:32:34;;;;;;;7.95;5.45;;;;;;;22.22;47.18;94087.69;5073063;28;20039;-75
2022/08/10 05:34:59;;;;;;;5.25;4.75;;;;;;;21.88;47.48;94065.44;5071627;28;20021;-75
2022/08/10 05:37:27;;;;;;;8.05;5.93;;;;;;;21.69;48.51;94065.72;5075842;28;20032;-75
2022/08/10 05:39:54;;;;;;;8.05;5.60;;;;;;;21.63;49.26;94080.75;5076717;28;20029;-75
2022/08/10 05:42:21;;;;;;;7.63;6.15;;;;;;;21.75;49.35;94073.13;5073637;28;20029;-75
2022/08/10 05:44:46;;;;;;;7.25;5.57;;;;;;;21.51;49.34;94073.66;5075892;28;20240;-76
2022/08/10 05:47:12;;;;;;;7.25;6.15;;;;;;;21.31;50.20;94075.88;5074478;28;20544;-75
2022/08/10 05:49:37;;;;;;;8.27;5.95;;;;;;;21.52;50.19;94079.88;5073463;28;20016;-75
2022/08/10 05:52:03;;;;;;;6.22;5.40;;;;;;;20.95;51.01;94063.97;5071271;28;20028;-76
2022/08/10 05:54:29;;;;;;;7.15;6.05;;;;;;;21.06;51.98;94083.00;5071875;28;20494;-74
2022/08/10 05:56:55;;;;;;;7.60;6.57;;;;;;;21.14;51.96;94081.88;5071318;28;20028;-75
2022/08/10 05:59:21;;;;;;;12.65;5.43;;;;;;;21.16;51.99;94073.41;5067833;28;20052;-75
2022/08/10 06:01:50;;;;;;;10.27;5.78;;;;;;;21.38;51.40;94065.09;5087484;27;20446;-74
2022/08/10 06:04:24;;;;;;;7.90;6.28;;;;;;;21.72;51.27;94086.59;5071826;28;20035;-75
2022/08/10 06:06:51;;;;;;;9.82;7.50;;;;;;;21.92;51.25;94085.19;5075345;28;20036;-74
2022/08/10 06:09:18;;;;;;;7.80;6.28;;;;;;;21.84;50.57;94081.69;5074304;28;20734;-74
2022/08/10 06:11:45;;;;;;;11.63;7.30;;;;;;;21.57;51.89;94074.13;5072492;28;20016;-75
2022/08/10 06:16:59;;;;;;;9.70;6.85;;;;;;;21.51;51.60;94089.91;5073475;28;20518;-75
2022/08/10 06:19:26;;;;;;;7.75;6.75;;;;;;;21.72;51.57;94083.91;5074300;28;20021;-75
2022/08/10 06:21:54;;;;;;;8.75;6.55;;;;;;;21.57;50.89;94050.56;5074153;28;20024;-75
2022/08/10 06:24:22;;;;;;;9.10;6.63;;;;;;;21.93;50.21;94062.38;5073815;28;20144;-75
2022/08/10 06:26:47;;;;;;;7.90;6.65;;;;;;;22.02;50.63;94091.81;5081196;28;20028;-74
2022/08/10 06:29:15;;;;;;;9.45;7.82;;;;;;;22.03;50.56;94083.31;5074582;28;20038;-75
2022/08/10 06:31:48;;;;;;;8.30;7.47;;;;;;;21.78;50.49;94087.81;5073019;28;20028;-75
2022/08/10 06:34:18;;;;;;;9.27;7.30;;;;;;;21.58;51.72;94084.59;5075100;28;20039;-75
2022/08/10 06:36:45;;;;;;;9.52;8.10;;;;;;;21.66;51.36;94086.19;5071153;28;20430;-76
2022/08/10 06:39:11;;;;;;;10.10;8.20;;;;;;;21.79;51.44;94100.22;5072302;28;20031;-74
2022/08/10 06:41:43;;;;;;;10.27;7.47;;;;;;;21.70;51.76;94086.22;5073186;28;20032;-75
2022/08/10 06:44:14;;;;;;;8.98;7.05;;;;;;;21.69;51.61;94085.44;5080049;28;20027;-75
2022/08/10 06:46:47;;;;;;;9.25;6.57;;;;;;;21.99;49.86;94098.78;5071353;28;20446;-74
2022/08/10 06:49:14;;;;;;;10.55;7.95;;;;;;;22.01;50.17;94101.88;5076200;28;20044;-75
2022/08/10 06:51:43;;;;;;;10.63;8.25;;;;;;;21.88;51.44;94077.06;5072118;28;20109;-75
2022/08/10 06:54:11;;;;;;;10.90;8.20;;;;;;;22.06;51.01;94093.38;5070798;28;20586;-74
2022/08/10 06:56:43;;;;;;;10.90;8.45;;;;;;;22.01;51.01;94085.63;5075794;28;20032;-76
2022/08/10 06:59:17;;;;;;;12.70;8.43;;;;;;;21.77;50.86;94099.78;5070092;28;20818;-76
2022/08/10 07:01:44;;;;;;;9.88;7.03;;;;;;;21.80;50.47;94077.41;5071329;28;20280;-74
2022/08/10 07:04:58;;;;;;;12.32;8.50;;;;;;;21.80;50.56;94071.97;5076106;28;20032;-75
2022/08/10 07:07:27;;;;;;;10.82;8.50;;;;;;;22.03;49.79;94088.75;5070307;28;20055;-74
2022/08/10 07:09:55;;;;;;;9.10;8.07;;;;;;;21.80;50.87;94093.63;5072122;28;20070;-75
2022/08/10 07:12:22;;;;;;;10.98;7.97;;;;;;;21.79;50.68;94095.56;5070356;28;20540;-75
2022/08/10 07:14:50;;;;;;;11.27;7.78;;;;;;;22.05;48.79;94097.25;5071012;28;20028;-75
2022/08/10 07:17:19;;;;;;;11.63;9.52;;;;;;;22.00;50.54;94078.66;5074545;28;20053;-75
2022/08/10 07:19:47;;;;;;;12.20;9.50;;;;;;;22.41;50.11;94094.75;5072784;28;20028;-75
2022/08/10 07:22:15;;;;;;;13.40;9.13;;;;;;;22.50;48.98;94089.75;5071244;28;20662;-75
2022/08/10 07:24:42;;;;;;;11.05;9.00;;;;;;;22.19;49.39;94070.22;5061759;28;20292;-75
2022/08/10 07:27:09;;;;;;;17.60;9.90;;;;;;;22.46;49.45;94088.97;5070017;28;20028;-75
2022/08/10 07:29:35;;;;;;;12.20;9.23;;;;;;;22.62;49.41;94086.69;5071524;28;20031;-75
2022/08/10 07:32:03;;;;;;;8.68;7.82;;;;;;;22.53;48.79;94094.41;5072679;28;20031;-75
2022/08/10 07:34:30;;;;;;;12.00;8.65;;;;;;;22.47;48.05;94096.72;5072564;28;20032;-75
2022/08/10 07:37:05;;;;;;;10.48;8.40;;;;;;;22.76;47.51;94091.38;5070696;28;20024;-76
2022/08/10 07:39:36;;;;;;;10.52;6.03;;;;;;;22.74;45.49;94073.56;5071526;28;20036;-75
2022/08/10 07:42:03;;;;;;;7.30;5.95;;;;;;;22.89;44.38;94070.91;5068727;28;20024;-76
2022/08/10 07:44:32;;;;;;;8.68;6.43;;;;;;;23.14;45.10;94074.44;5073814;28;20064;-75
2022/08/10 07:47:02;;;;;;;7.68;6.85;;;;;;;22.86;45.08;94086.03;5072806;28;20019;-74
2022/08/10 07:49:35;;;;;;;9.18;6.95;;;;;;;23.14;45.83;94086.06;5071333;28;20056;-76
2022/08/10 07:52:05;;;;;;;9.40;7.15;;;;;;;23.04;45.66;94048.06;5072679;28;20639;-75
2022/08/10 07:54:35;;;;;;;6.85;6.15;;;;;;;23.28;44.85;94084.50;5073424;28;20032;-75
2022/08/10 07:57:05;;;;;;;8.50;6.93;;;;;;;23.45;44.51;94068.25;5069680;28;20885;-75
2022/08/10 07:59:37;;;;;;;9.07;7.65;;;;;;;23.42;45.30;94087.22;5069090;28;20102;-76
2022/08/10 08:02:05;;;;;;;8.75;7.60;;;;;;;23.39;45.49;94080.66;5069016;28;20033;-75
2022/08/10 08:04:32;;;;;;;10.43;6.57;;;;;;;23.48;45.05;94058.53;5069765;28;20036;-76
2022/08/10 08:06:59;;;;;;;10.48;7.20;;;;;;;23.69;43.48;94072.13;5070020;28;20032;-75
2022/08/10 08:09:27;;;;;;;20.10;10.20;;;;;;;23.79;44.07;94076.78;5071371;28;20035;-76
2022/08/10 08:11:54;;;;;;;12.18;7.78;;;;;;;23.86;43.72;94065.88;5067717;28;20107;-75
2022/08/10 08:14:21;;;;;;;7.60;6.00;;;;;;;23.81;42.98;94060.84;5064372;28;20032;-75
2022/08/10 08:16:50;;;;;;;7.28;6.57;;;;;;;23.62;43.24;94053.13;5067706;28;20103;-75
2022/08/10 08:19:17;;;;;;;12.13;7.40;;;;;;;23.79;43.75;94071.34;5068503;28;20413;-75
2022/08/10 08:21:43;;;;;;;11.43;6.70;;;;;;;23.61;43.61;94065.19;5066305;28;20151;-76
2022/08/10 08:24:11;;;;;;;9.93;7.30;;;;;;;23.41;43.92;94066.69;5067732;28;20040;-75
2022/08/10 08:26:37;;;;;;;7.45;6.18;;;;;;;23.47;43.82;94056.97;5067702;28;20285;-76
2022/08/10 08:29:04;;;;;;;8.30;7.13;;;;;;;23.48;42.94;94062.03;5070593;28;20056;-75
2022/08/10 08:31:31;;;;;;;8.50;6.55;;;;;;;23.73;42.70;94056.59;5068053;28;20062;-75
2022/08/10 08:33:58;;;;;;;9.95;6.05;;;;;;;23.89;42.15;94042.63;5069188;28;20023;-75
2022/08/10 08:36:24;;;;;;;13.68;9.82;;;;;;;24.00;42.55;94052.28;5069842;28;20069;-76
2022/08/10 08:38:50;;;;;;;13.32;9.10;;;;;;;23.85;43.43;94034.47;5072654;28;20028;-74
2022/08/10 08:41:44;;;;;;;8.68;6.18;;;;;;;23.85;42.90;94058.16;5063263;28;20078;-77
2022/08/10 08:44:34;;;;;;;8.87;5.87;;;;;;;23.89;42.61;94059.69;5066122;28;20044;-75
2022/08/10 08:47:03;;;;;;;8.95;5.65;;;;;;;23.81;43.09;94050.00;5076620;28;20029;-75
2022/08/10 08:50:07;;;;;;;8.77;6.50;;;;;;;23.82;42.45;94048.06;5057544;28;20059;-75
2022/08/10 08:52:57;;;;;;;8.15;5.68;;;;;;;23.95;41.42;94052.66;5061365;28;20308;-75
2022/08/10 08:55:50;;;;;;;6.28;5.13;;;;;;;24.12;41.32;94061.19;5070726;28;20029;-75
2022/08/10 08:58:27;;;;;;;7.22;5.72;;;;;;;23.91;41.50;94062.78;5069004;28;20089;-75
2022/08/10 09:01:18;;;;;;;7.30;5.78;;;;;;;24.18;41.76;94054.97;5068810;28;20491;-75
2022/08/10 09:04:11;;;;;;;6.47;5.82;;;;;;;24.31;41.65;94047.16;5071555;28;20028;-75
2022/08/10 09:06:44;;;;;;;7.00;5.93;;;;;;;24.26;41.62;94053.78;5064718;28;20031;-75
2022/08/10 09:09:49;;;;;;;6.97;5.93;;;;;;;24.17;41.61;94053.41;5057786;28;20123;-75
2022/08/10 09:12:30;;;;;;;5.88;5.32;;;;;;;24.25;41.47;94043.28;5074032;28;20533;-75
2022/08/10 09:15:01;;;;;;;6.90;5.78;;;;;;;24.22;41.78;94038.66;5075678;28;20033;-75
2022/08/10 09:17:51;;;;;;;6.88;6.18;;;;;;;23.94;41.96;94040.28;5072812;28;20082;-75
2022/08/10 09:20:25;;;;;;;7.88;6.00;;;;;;;24.00;42.54;94030.53;5081430;28;20039;-75
2022/08/10 09:23:07;;;;;;;7.22;6.15;;;;;;;24.18;43.03;94033.25;5075561;28;20078;-74
2022/08/10 09:25:43;;;;;;;13.30;6.03;;;;;;;24.12;42.65;94034.03;5070393;28;20031;-75
2022/08/10 09:28:15;;;;;;;8.05;5.85;;;;;;;23.92;41.74;94045.31;5070378;28;20039;-75
2022/08/10 09:30:58;;;;;;;9.77;6.65;;;;;;;23.92;42.42;94042.59;5076853;28;20772;-75
2022/08/10 09:33:51;;;;;;;6.95;6.03;;;;;;;23.88;42.23;94038.34;5071169;28;20598;-75
2022/08/10 09:36:16;;;;;;;6.82;5.78;;;;;;;24.21;42.76;94027.00;5079052;28;20076;-75
2022/08/10 09:38:47;;;;;;;6.43;5.75;;;;;;;24.22;40.63;94028.56;5071866;28;20020;-75
2022/08/10 09:41:31;;;;;;;6.40;5.50;;;;;;;24.24;41.32;94028.19;5073699;28;20071;-75
2022/08/10 09:44:34;;;;;;;7.50;4.95;;;;;;;24.32;41.86;94027.75;5072807;28;20028;-75
2022/08/10 09:47:32;;;;;;;6.78;5.32;;;;;;;24.36;42.01;94019.56;5080054;28;20583;-76
2022/08/10 09:50:11;;;;;;;6.43;5.53;;;;;;;24.37;40.92;94010.25;5067462;28;20496;-75
2022/08/10 09:52:55;;;;;;;5.28;4.25;;;;;;;24.35;41.00;94015.28;5073564;28;20031;-75
2022/08/10 09:55:51;;;;;;;5.13;4.57;;;;;;;24.44;42.21;94018.38;5073627;28;20027;-75
2022/08/10 09:58:59;;;;;;;6.38;5.20;;;;;;;24.61;40.34;94009.34;5068554;28;20051;-75
2022/08/10 10:01:50;;;;;;;5.70;4.18;;;;;;;24.56;40.76;94004.31;5071732;28;20024;-75
2022/08/10 10:04:54;;;;;;;7.40;5.10;;;;;;;24.96;39.56;94016.53;5070171;28;20040;-75
2022/08/10 10:07:25;;;;;;;5.82;4.47;;;;;;;25.14;38.20;94011.72;5073163;28;20056;-75
2022/08/10 10:09:59;;;;;;;4.47;4.00;;;;;;;25.20;37.88;94020.22;5073340;28;20025;-75
2022/08/10 10:12:36;;;;;;;6.17;3.97;;;;;;;24.88;38.66;93996.00;5076855;28;20217;-75
2022/08/10 10:15:33;;;;;;;4.00;3.70;;;;;;;25.03;38.35;94004.84;5072093;28;20687;-76
2022/08/10 10:18:10;;;;;;;4.18;3.78;;;;;;;25.15;38.74;94007.06;5067096;28;20033;-75
2022/08/10 10:21:04;;;;;;;7.13;3.45;;;;;;;24.99;38.16;94004.84;5070900;28;20102;-76
2022/08/10 10:23:51;;;;;;;4.53;3.95;;;;;;;24.71;38.45;94005.81;5066152;28;20036;-74
2022/08/10 10:26:25;;;;;;;4.30;3.70;;;;;;;24.72;38.76;93999.22;5065739;28;20074;-75
2022/08/10 10:28:51;;;;;;;;;;;;;;;24.60;39.31;94005.06;5058996;28;20138;-76
2022/08/10 10:31:38;;;;;;;5.70;4.07;;;;;;;24.67;38.68;93993.38;5066697;28;19945;-75
2022/08/10 10:34:34;;;;;;;6.65;3.97;;;;;;;24.82;39.02;93998.38;5075626;28;20085;-75
2022/08/10 10:37:01;;;;;;;4.97;3.97;;;;;;;24.69;38.31;93970.03;5068807;28;20044;-75
2022/08/10 10:39:28;;;;;;;4.10;3.58;;;;;;;24.92;38.47;93990.53;5068871;28;20020;-75
2022/08/10 10:42:14;;;;;;;4.78;3.75;;;;;;;24.93;38.48;93965.63;5067351;28;20036;-75
2022/08/10 10:45:09;;;;;;;4.95;3.28;;;;;;;25.18;38.18;93976.31;5067665;28;20025;-76
2022/08/10 10:47:45;;;;;;;4.95;3.58;;;;;;;25.08;37.98;93991.53;5067834;28;20225;-74
2022/08/10 10:50:18;;;;;;;4.05;3.47;;;;;;;25.35;37.78;93980.88;5071492;28;20021;-75
2022/08/10 10:53:08;;;;;;;4.38;3.75;;;;;;;25.41;39.15;93981.22;5069698;28;20028;-75
2022/08/10 10:55:48;;;;;;;6.38;3.50;;;;;;;25.36;38.84;93982.41;5067234;28;20476;-75
2022/08/10 10:58:51;;;;;;;3.80;3.40;;;;;;;25.50;39.14;93979.56;5070686;28;20044;-75
2022/08/10 11:01:35;;;;;;;3.67;3.25;;;;;;;25.54;38.46;93984.97;5073007;28;20028;-75
2022/08/10 11:04:14;;;;;;;6.00;3.87;;;;;;;25.24;38.62;93977.44;5069617;28;20025;-75
2022/08/10 11:07:04;;;;;;;4.53;4.13;;;;;;;25.23;39.20;93982.09;5073855;28;20039;-75
2022/08/10 11:09:41;;;;;;;4.32;3.63;;;;;;;25.44;38.06;93980.38;5071634;28;20023;-74
2022/08/10 11:12:22;;;;;;;4.10;3.63;;;;;;;25.29;38.56;93982.44;5072027;28;20491;-75
2022/08/10 11:15:15;;;;;;;6.47;3.88;;;;;;;25.29;38.80;93979.72;5071267;28;20125;-75
2022/08/10 11:18:07;;;;;;;4.97;4.47;;;;;;;25.45;39.02;93977.28;5065884;28;20071;-75
2022/08/10 11:20:40;;;;;;;4.65;3.53;;;;;;;25.55;38.57;93987.28;5062453;28;20020;-75
2022/08/10 11:23:18;;;;;;;4.07;3.33;;;;;;;25.53;39.37;93992.34;5061882;28;20022;-75
2022/08/10 11:25:54;;;;;;;4.07;3.72;;;;;;;25.29;39.71;93996.03;5064367;28;20074;-74
2022/08/10 11:28:53;;;;;;;6.38;4.10;;;;;;;25.12;39.50;93986.09;5065339;28;20031;-75
2022/08/10 11:31:33;;;;;;;5.07;4.18;;;;;;;24.88;39.43;93960.63;5070569;28;20039;-74
2022/08/10 11:34:19;;;;;;;4.70;4.22;;;;;;;25.27;39.30;93977.38;5072808;28;20028;-75
2022/08/10 11:37:04;;;;;;;4.32;3.92;;;;;;;25.34;39.40;93952.09;5068479;28;20062;-75
2022/08/10 11:39:39;;;;;;;5.25;3.63;;;;;;;25.57;38.41;93970.53;5069598;28;20107;-75
2022/08/10 11:42:30;;;;;;;5.03;4.15;;;;;;;25.62;38.30;93964.63;5073379;28;20081;-75
2022/08/10 11:45:06;;;;;;;4.30;3.90;;;;;;;25.47;38.17;93964.00;5071163;28;20037;-74
2022/08/10 11:47:43;;;;;;;5.15;4.65;;;;;;;25.57;38.93;93968.56;5071054;28;20143;-75
2022/08/10 11:50:21;;;;;;;4.25;3.42;;;;;;;25.64;38.57;93957.63;5073939;28;20028;-74
2022/08/10 11:53:06;;;;;;;3.72;3.40;;;;;;;25.73;38.36;93948.97;5069213;28;20523;-75
2022/08/10 11:55:33;;;;;;;4.15;3.75;;;;;;;25.83;37.28;93936.41;5068399;28;20399;-75
2022/08/10 12:00:56;;;;;;;4.35;3.95;;;;;;;25.74;37.85;93949.75;5064480;28;21282;-74
2022/08/10 12:03:22;;;;;;;4.05;3.67;;;;;;;25.53;38.34;93956.94;5061684;28;20693;-74
2022/08/10 12:05:50;;;;;;;4.53;3.75;;;;;;;25.39;38.17;93965.25;5063042;28;20977;-75
2022/08/10 12:08:18;;;;;;;5.22;4.35;;;;;;;25.40;38.03;93958.66;5068279;28;20035;-76
2022/08/10 12:10:45;;;;;;;6.10;3.80;;;;;;;25.39;37.99;93975.38;5063829;28;20025;-75
2022/08/10 12:13:48;;;;;;;5.10;3.50;;;;;;;25.52;38.26;93976.41;5070928;28;20048;-75
2022/08/10 12:16:20;;;;;;;4.20;3.80;;;;;;;25.66;38.01;93981.75;5066971;28;20626;-75
2022/08/10 12:18:50;;;;;;;5.38;4.05;;;;;;;25.33;37.57;93947.81;5067033;28;20044;-75
2022/08/10 12:21:20;;;;;;;4.43;3.33;;;;;;;25.68;38.09;93988.31;5067167;28;20541;-75
2022/08/10 12:23:56;;;;;;;3.85;3.55;;;;;;;25.31;38.41;94009.28;5062116;28;20648;-75
2022/08/10 12:26:48;;;;;;;7.03;3.90;;;;;;;25.21;38.60;93994.56;5068822;28;20020;-75
2022/08/10 12:29:51;;;;;;;4.95;4.43;;;;;;;24.97;39.08;93982.72;5065068;28;20118;-74
2022/08/10 12:32:31;;;;;;;5.82;4.38;;;;;;;24.70;39.71;93987.91;5004989;28;20043;-75
2022/08/10 12:35:05;;;;;;;7.65;6.28;;;;;;;24.39;41.15;93983.47;5064993;28;20170;-74
2022/08/10 12:37:58;;;;;;;9.43;5.78;;;;;;;24.07;42.13;93989.00;5060488;28;20028;-74
2022/08/10 12:40:27;;;;;;;9.13;5.65;;;;;;;23.78;42.83;93982.13;5041664;28;20028;-76
2022/08/10 12:43:11;;;;;;;6.15;5.28;;;;;;;23.90;43.19;93985.19;5066171;28;20043;-76
2022/08/10 12:45:55;;;;;;;9.93;5.72;;;;;;;23.97;42.57;93979.72;5049651;28;20069;-74
2022/08/10 12:48:42;;;;;;;6.20;5.25;;;;;;;24.18;42.29;93975.41;5063936;28;20125;-74
2022/08/10 12:51:18;;;;;;;6.78;5.85;;;;;;;24.15;42.49;93979.66;5064431;28;20342;-73
2022/08/10 12:54:05;;;;;;;6.47;5.18;;;;;;;23.97;42.21;93979.72;5051443;28;20064;-75
2022/08/10 12:56:35;;;;;;;4.72;4.22;;;;;;;23.94;42.41;93969.66;5069401;28;20036;-74
2022/08/10 12:59:04;;;;;;;5.03;4.28;;;;;;;24.07;41.49;93969.19;5048414;28;20059;-74
2022/08/10 13:01:33;;;;;;;5.82;4.53;;;;;;;24.10;41.55;93957.56;5069173;28;20047;-74
2022/08/10 13:04:03;;;;;;;6.85;4.05;;;;;;;23.83;41.66;93944.47;5069239;28;20109;-74
2022/08/10 13:06:32;;;;;;;6.15;4.63;;;;;;;24.15;41.63;93971.50;5071111;28;20031;-74
2022/08/10 13:09:13;;;;;;;5.45;4.32;;;;;;;24.18;41.18;93968.03;5069384;28;20023;-74